createdAt,value
2023-02-24T00:00:42.082Z,60.80
2023-02-24T00:03:19.138Z,61.90
2023-02-24T00:05:51.440Z,54.20
2023-02-24T00:08:23.565Z,57.40
2023-02-24T00:10:55.660Z,62.60
2023-02-24T00:13:28.041Z,60.80
2023-02-24T00:16:06.193Z,57.50
2023-02-24T00:18:38.355Z,54.90
2023-02-24T00:21:15.014Z,57.50
2023-02-24T00:23:48.413Z,54.30
2023-02-24T00:26:20.763Z,55.40
2023-02-24T00:28:53.516Z,57.40
2023-02-24T00:31:25.955Z,56.40
2023-02-24T00:34:01.235Z,49.50
2023-02-24T00:36:34.108Z,49.40
2023-02-24T00:39:10.498Z,53.70
2023-02-24T00:41:46.069Z,55.70
2023-02-24T00:44:18.209Z,54.90
2023-02-24T00:46:51.696Z,59.00
2023-02-24T00:49:24.675Z,57.80
2023-02-24T00:51:57.222Z,58.80
2023-02-24T00:54:29.589Z,51.40
2023-02-24T00:57:02.971Z,56.50
2023-02-24T00:59:35.803Z,65.50
2023-02-24T01:02:08.632Z,62.00
2023-02-24T01:04:41.013Z,63.00
2023-02-24T01:07:14.454Z,63.90
2023-02-24T01:09:51.412Z,65.10
2023-02-24T01:12:50.711Z,63.80
2023-02-24T01:15:24.523Z,72.30
2023-02-24T01:17:56.718Z,63.40
2023-02-24T01:20:30.602Z,64.00
2023-02-24T01:23:03.533Z,61.80
2023-02-24T01:25:35.833Z,59.30
2023-02-24T01:28:11.176Z,57.40
2023-02-24T01:30:44.546Z,58.90
2023-02-24T01:33:16.867Z,62.40
2023-02-24T01:35:49.297Z,61.20
2023-02-24T01:38:23.201Z,60.40
2023-02-24T01:41:05.080Z,58.80
2023-02-24T01:43:59.166Z,61.70
2023-02-24T01:46:34.306Z,68.80
2023-02-24T01:49:12.301Z,71.40
2023-02-24T01:51:49.382Z,75.00
2023-02-24T01:54:26.544Z,64.40
2023-02-24T01:56:59.954Z,74.90
2023-02-24T01:59:35.616Z,62.10
2023-02-24T02:02:10.281Z,69.50
2023-02-24T02:04:47.385Z,66.30
2023-02-24T02:07:23.085Z,58.80
2023-02-24T02:09:55.945Z,62.60
2023-02-24T02:12:33.284Z,72.00
2023-02-24T02:15:11.901Z,76.40
2023-02-24T02:17:52.670Z,73.50
2023-02-24T02:20:59.148Z,82.10
2023-02-24T02:23:54.211Z,83.50
2023-02-24T02:27:14.211Z,88.00
2023-02-24T02:30:13.784Z,103.00
2023-02-24T02:33:21.723Z,98.90
2023-02-24T02:36:01.921Z,75.70
2023-02-24T02:38:39.890Z,69.90
2023-02-24T02:41:23.612Z,70.40
2023-02-24T02:44:04.325Z,65.10
2023-02-24T02:46:40.493Z,68.70
2023-02-24T02:49:21.048Z,67.20
2023-02-24T02:51:57.156Z,60.20
2023-02-24T02:54:34.726Z,60.20
2023-02-24T02:57:13.249Z,52.80
2023-02-24T02:59:50.738Z,51.70
2023-02-24T03:02:29.918Z,58.50
2023-02-24T03:05:09.483Z,48.90
2023-02-24T03:07:46.778Z,51.80
2023-02-24T03:10:23.299Z,52.00
2023-02-24T03:12:58.483Z,52.00
2023-02-24T03:15:34.264Z,55.10
2023-02-24T03:18:10.758Z,52.80
2023-02-24T03:20:48.481Z,48.70
2023-02-24T03:23:26.433Z,51.90
2023-02-24T03:26:07.679Z,49.30
2023-02-24T03:28:50.049Z,46.60
2023-02-24T03:31:29.037Z,46.00
2023-02-24T03:34:06.871Z,48.00
2023-02-24T03:36:39.377Z,47.30
2023-02-24T03:39:12.648Z,46.30
2023-02-24T03:41:58.859Z,45.70
2023-02-24T03:44:33.009Z,47.50
2023-02-24T03:47:06.531Z,48.70
2023-02-24T03:49:43.638Z,48.00
2023-02-24T03:52:29.258Z,44.70
2023-02-24T03:55:28.735Z,45.60
2023-02-24T03:58:18.422Z,44.70
2023-02-24T04:00:59.721Z,41.70
2023-02-24T04:03:39.698Z,39.30
2023-02-24T04:06:49.865Z,42.60
2023-02-24T04:09:33.409Z,127.10
2023-02-24T04:12:20.036Z,479.60
2023-02-24T04:14:59.053Z,465.10
2023-02-24T04:17:37.082Z,504.80
2023-02-24T04:20:15.843Z,284.50
2023-02-24T04:22:57.112Z,395.80
2023-02-24T04:25:32.045Z,171.40
2023-02-24T04:30:40.543Z,68.80
2023-02-24T04:33:13.874Z,59.60
2023-02-24T04:35:48.110Z,55.90
2023-02-24T04:38:20.747Z,45.40
2023-02-24T04:40:53.792Z,42.30
2023-02-24T04:43:26.128Z,55.10
2023-02-24T04:45:58.432Z,43.40
2023-02-24T04:48:30.672Z,43.10
2023-02-24T04:51:06.708Z,42.70
2023-02-24T04:53:39.233Z,44.50
2023-02-24T04:56:11.478Z,109.30
2023-02-24T04:58:46.514Z,130.30
2023-02-24T05:01:19.704Z,105.80
2023-02-24T05:03:52.121Z,180.00
2023-02-24T05:06:24.224Z,74.50
2023-02-24T05:08:56.366Z,56.70
2023-02-24T05:11:34.989Z,53.10
2023-02-24T05:14:08.028Z,47.70
2023-02-24T05:16:40.271Z,52.10
2023-02-24T05:19:31.006Z,41.60
2023-02-24T05:22:04.890Z,42.30
2023-02-24T05:24:36.818Z,41.20
2023-02-24T05:27:09.093Z,34.90
2023-02-24T05:29:41.286Z,39.80
2023-02-24T05:32:16.888Z,41.20
2023-02-24T05:34:49.257Z,39.70
2023-02-24T05:37:21.377Z,46.70
2023-02-24T05:40:00.336Z,40.80
2023-02-24T05:42:35.131Z,45.60
2023-02-24T05:45:11.141Z,62.10
2023-02-24T05:47:46.524Z,46.50
2023-02-24T05:50:21.381Z,54.20
2023-02-24T05:52:56.091Z,101.00
2023-02-24T05:55:28.412Z,75.60
2023-02-24T05:58:00.607Z,60.90
2023-02-24T06:00:32.925Z,63.10
2023-02-24T06:03:08.775Z,35.90
2023-02-24T06:05:42.712Z,29.20
2023-02-24T06:08:14.884Z,33.70
2023-02-24T06:10:47.564Z,34.30
2023-02-24T06:13:20.070Z,31.00
2023-02-24T06:15:58.029Z,42.90
2023-02-24T06:18:30.391Z,48.30
2023-02-24T06:21:07.174Z,50.40
2023-02-24T06:23:39.445Z,125.30
2023-02-24T06:26:13.250Z,84.20
2023-02-24T06:28:45.472Z,41.70
2023-02-24T06:31:21.596Z,44.50
2023-02-24T06:33:54.432Z,37.40
2023-02-24T06:36:27.585Z,65.70
2023-02-24T06:38:59.808Z,60.70
2023-02-24T06:41:33.145Z,39.70
2023-02-24T06:44:05.468Z,51.10
2023-02-24T06:46:38.177Z,55.10
2023-02-24T06:49:10.470Z,68.40
2023-02-24T06:51:43.655Z,78.00
2023-02-24T06:54:16.938Z,53.20
2023-02-24T06:56:49.127Z,82.40
2023-02-24T06:59:22.824Z,88.90
2023-02-24T07:01:55.434Z,57.80
2023-02-24T07:04:29.069Z,105.30
2023-02-24T07:07:03.642Z,47.00
2023-02-24T07:09:36.840Z,148.40
2023-02-24T07:12:11.410Z,48.80
2023-02-24T07:14:44.140Z,245.10
2023-02-24T07:17:19.065Z,230.40
2023-02-24T07:22:25.318Z,66.00
2023-02-24T07:25:01.641Z,136.80
2023-02-24T07:27:33.781Z,220.70
2023-02-24T07:30:09.960Z,64.30
2023-02-24T07:32:42.630Z,154.80
2023-02-24T07:35:15.406Z,106.10
2023-02-24T07:37:48.723Z,137.90
2023-02-24T07:40:22.268Z,228.70
2023-02-24T07:42:57.335Z,205.00
2023-02-24T07:45:30.261Z,248.70
2023-02-24T07:48:02.946Z,131.80
2023-02-24T07:50:35.132Z,60.10
2023-02-24T07:53:07.792Z,64.50
2023-02-24T07:55:40.505Z,45.30
2023-02-24T07:58:12.779Z,39.30
2023-02-24T08:00:59.609Z,42.60
2023-02-24T08:03:33.271Z,45.10
2023-02-24T08:06:15.742Z,64.20
2023-02-24T08:08:59.487Z,46.00
2023-02-24T08:11:35.755Z,44.00
2023-02-24T08:14:13.961Z,38.10
2023-02-24T08:16:50.456Z,44.40
2023-02-24T08:19:23.369Z,36.50
2023-02-24T08:22:00.259Z,38.60
2023-02-24T08:24:35.767Z,36.90
2023-02-24T08:27:08.890Z,37.10
2023-02-24T08:29:58.294Z,38.40
2023-02-24T08:32:34.101Z,32.00
2023-02-24T08:35:14.694Z,35.60
2023-02-24T08:37:48.744Z,46.70
2023-02-24T08:40:50.549Z,47.00
2023-02-24T08:43:33.140Z,31.70
2023-02-24T08:46:18.695Z,34.20
2023-02-24T08:48:55.822Z,29.20
2023-02-24T08:51:34.969Z,25.90
2023-02-24T08:54:11.371Z,20.50
2023-02-24T08:56:49.210Z,22.10
2023-02-24T08:59:38.179Z,17.40
2023-02-24T09:02:24.293Z,19.10
2023-02-24T09:05:00.332Z,14.60
2023-02-24T09:07:36.627Z,17.00
2023-02-24T09:10:17.929Z,14.90
2023-02-24T09:12:53.706Z,15.40
2023-02-24T09:15:41.491Z,19.30
2023-02-24T09:18:15.026Z,18.60
2023-02-24T09:21:16.266Z,29.20
2023-02-24T09:23:48.508Z,28.50
2023-02-24T09:26:20.864Z,19.40
2023-02-24T09:28:56.836Z,15.60
2023-02-24T09:31:40.839Z,22.50
2023-02-24T09:34:18.741Z,26.40
2023-02-24T09:37:03.175Z,37.90
2023-02-24T09:39:51.462Z,16.70
2023-02-24T09:42:34.955Z,11.80
2023-02-24T09:45:14.938Z,11.00
2023-02-24T09:47:57.896Z,9.90
2023-02-24T09:51:03.438Z,8.40
2023-02-24T09:53:49.397Z,6.00
2023-02-24T09:56:28.149Z,8.00
2023-02-24T09:59:12.773Z,12.30
2023-02-24T10:01:53.383Z,9.20
2023-02-24T10:04:40.825Z,7.00
2023-02-24T10:07:19.538Z,8.70
2023-02-24T10:09:56.212Z,11.10
2023-02-24T10:12:40.293Z,8.20
2023-02-24T10:15:19.933Z,8.20
2023-02-24T10:17:55.618Z,5.40
2023-02-24T10:20:39.866Z,10.70
2023-02-24T10:23:29.742Z,6.60
2023-02-24T10:26:07.402Z,10.10
2023-02-24T10:28:52.109Z,8.90
2023-02-24T10:31:35.751Z,9.00
2023-02-24T10:34:14.028Z,10.30
2023-02-24T10:36:50.465Z,14.00
2023-02-24T10:39:25.804Z,18.70
2023-02-24T10:42:15.955Z,31.00
2023-02-24T10:45:02.588Z,10.00
2023-02-24T10:47:35.682Z,7.10
2023-02-24T10:50:12.843Z,8.40
2023-02-24T10:53:11.366Z,8.00
2023-02-24T10:56:14.944Z,6.00
2023-02-24T10:59:07.347Z,7.20
2023-02-24T11:01:54.882Z,7.50
2023-02-24T11:04:44.289Z,8.60
2023-02-24T11:07:24.881Z,7.80
2023-02-24T11:10:26.226Z,8.20
2023-02-24T11:13:18.801Z,10.10
2023-02-24T11:16:10.926Z,9.70
2023-02-24T11:18:51.479Z,9.90
2023-02-24T11:21:27.715Z,7.50
2023-02-24T11:24:03.090Z,6.10
2023-02-24T11:26:39.343Z,9.00
2023-02-24T11:29:39.268Z,8.90
2023-02-24T11:32:33.715Z,11.50
2023-02-24T11:35:14.042Z,10.50
2023-02-24T11:38:03.087Z,10.50
2023-02-24T11:40:38.708Z,10.90
2023-02-24T11:43:18.556Z,16.10
2023-02-24T11:45:55.954Z,12.00
2023-02-24T11:48:32.323Z,12.30
2023-02-24T11:51:07.293Z,13.50
2023-02-24T11:56:21.979Z,13.40
2023-02-24T11:58:59.571Z,12.20
2023-02-24T12:01:37.447Z,10.90
2023-02-24T12:04:20.289Z,9.30
2023-02-24T12:06:58.732Z,10.40
2023-02-24T12:09:36.152Z,10.60
2023-02-24T12:12:14.614Z,11.80
2023-02-24T12:14:56.094Z,12.70
2023-02-24T12:17:36.342Z,16.60
2023-02-24T12:20:20.298Z,12.40
2023-02-24T12:22:57.787Z,13.80
2023-02-24T12:25:33.831Z,15.70
2023-02-24T12:28:18.518Z,13.40
2023-02-24T12:31:08.967Z,22.60
2023-02-24T12:34:01.114Z,17.40
2023-02-24T12:37:01.077Z,10.10
2023-02-24T12:39:45.551Z,13.90
2023-02-24T12:42:25.883Z,8.80
2023-02-24T12:45:05.354Z,11.80
2023-02-24T12:47:46.400Z,9.60
2023-02-24T12:50:28.528Z,13.60
2023-02-24T12:53:14.697Z,7.90
2023-02-24T12:55:57.209Z,10.70
2023-02-24T12:58:34.327Z,11.70
2023-02-24T13:01:20.112Z,13.00
2023-02-24T13:04:18.848Z,9.20
2023-02-24T13:07:07.675Z,10.80
2023-02-24T13:09:49.866Z,9.90
2023-02-24T13:12:29.859Z,12.70
2023-02-24T13:15:04.356Z,12.10
2023-02-24T13:17:46.843Z,9.00
2023-02-24T13:20:32.270Z,11.50
2023-02-24T13:23:20.059Z,9.90
2023-02-24T13:25:56.397Z,14.60
2023-02-24T13:28:33.246Z,11.50
2023-02-24T13:31:08.531Z,12.30
2023-02-24T13:33:42.988Z,12.70
2023-02-24T13:36:20.612Z,13.50
2023-02-24T13:39:05.084Z,9.20
2023-02-24T13:41:42.669Z,8.80
2023-02-24T13:44:29.705Z,7.40
2023-02-24T13:47:34.399Z,10.00
2023-02-24T13:50:25.526Z,9.80
2023-02-24T13:53:23.840Z,6.80
2023-02-24T13:56:11.618Z,92.50
2023-02-24T13:59:06.294Z,121.00
2023-02-24T14:01:51.292Z,15.40
2023-02-24T14:04:28.345Z,10.30
2023-02-24T14:07:05.912Z,11.30
2023-02-24T14:09:44.173Z,28.40
2023-02-24T14:12:20.232Z,16.90
2023-02-24T14:14:53.506Z,25.10
2023-02-24T14:17:29.558Z,23.40
2023-02-24T14:20:19.185Z,36.20
2023-02-24T14:22:54.257Z,32.10
2023-02-24T14:25:28.635Z,15.90
2023-02-24T14:28:01.458Z,13.90
2023-02-24T14:30:37.470Z,13.40
2023-02-24T14:33:22.024Z,24.30
2023-02-24T14:35:54.343Z,42.00
2023-02-24T14:38:35.622Z,36.20
2023-02-24T14:41:20.721Z,12.10
2023-02-24T14:43:53.432Z,40.50
2023-02-24T14:46:26.657Z,16.90
2023-02-24T14:48:59.196Z,9.30
2023-02-24T14:51:35.769Z,13.80
2023-02-24T14:54:14.545Z,10.10
2023-02-24T14:56:46.902Z,13.30
2023-02-24T14:59:25.278Z,29.50
2023-02-24T15:01:58.533Z,19.80
2023-02-24T15:04:38.153Z,49.60
2023-02-24T15:07:19.530Z,25.20
2023-02-24T15:09:53.077Z,41.40
2023-02-24T15:12:33.015Z,32.30
2023-02-24T15:15:09.191Z,21.60
2023-02-24T15:17:43.088Z,12.00
2023-02-24T15:20:33.770Z,8.40
2023-02-24T15:23:06.375Z,12.80
2023-02-24T15:25:46.961Z,27.50
2023-02-24T15:28:31.058Z,21.30
2023-02-24T15:31:09.797Z,15.60
2023-02-24T15:33:45.742Z,16.90
2023-02-24T15:36:22.397Z,25.40
2023-02-24T15:38:58.483Z,38.10
2023-02-24T15:41:42.017Z,29.00
2023-02-24T15:44:29.034Z,52.00
2023-02-24T15:47:13.556Z,78.20
2023-02-24T15:49:45.847Z,44.60
2023-02-24T15:52:21.449Z,40.60
2023-02-24T15:54:54.130Z,42.30
2023-02-24T15:57:27.987Z,50.50
2023-02-24T16:00:00.534Z,61.70
2023-02-24T16:02:32.835Z,159.70
2023-02-24T16:05:05.210Z,111.20
2023-02-24T16:07:39.856Z,198.20
2023-02-24T16:10:20.680Z,199.30
2023-02-24T16:12:55.988Z,87.10
2023-02-24T16:15:31.679Z,80.00
2023-02-24T16:18:04.196Z,154.10
2023-02-24T16:20:39.764Z,206.00
2023-02-24T16:23:14.889Z,102.20
2023-02-24T16:28:19.903Z,54.80
2023-02-24T16:30:52.926Z,60.10
2023-02-24T16:33:25.495Z,74.40
2023-02-24T16:35:57.884Z,459.00
2023-02-24T16:38:31.025Z,276.20
2023-02-24T16:41:04.471Z,91.30
2023-02-24T16:43:37.865Z,56.20
2023-02-24T16:46:17.047Z,54.90
2023-02-24T16:48:51.251Z,38.80
2023-02-24T16:51:24.480Z,47.60
2023-02-24T16:53:56.643Z,48.40
2023-02-24T16:56:28.964Z,42.70
2023-02-24T16:59:01.088Z,36.10
2023-02-24T17:01:34.011Z,32.70
2023-02-24T17:04:09.963Z,38.60
2023-02-24T17:06:42.486Z,40.50
2023-02-24T17:09:15.779Z,132.10
2023-02-24T17:11:48.014Z,107.10
2023-02-24T17:14:22.198Z,51.20
2023-02-24T17:16:54.544Z,37.10
2023-02-24T17:19:26.837Z,47.50
2023-02-24T17:21:58.965Z,38.70
2023-02-24T17:24:31.569Z,28.00
2023-02-24T17:27:04.568Z,31.40
2023-02-24T17:29:36.763Z,26.00
2023-02-24T17:32:09.238Z,43.20
2023-02-24T17:34:41.671Z,65.90
2023-02-24T17:37:13.840Z,123.10
2023-02-24T17:39:46.189Z,48.80
2023-02-24T17:42:18.427Z,63.90
2023-02-24T17:44:50.554Z,50.70
2023-02-24T17:47:22.754Z,49.20
2023-02-24T17:49:54.850Z,39.30
2023-02-24T17:52:27.267Z,43.80
2023-02-24T17:54:59.550Z,59.90
2023-02-24T17:57:31.783Z,59.10
2023-02-24T18:00:04.620Z,79.70
2023-02-24T18:02:44.510Z,85.50
2023-02-24T18:05:16.997Z,493.90
2023-02-24T18:07:49.661Z,205.80
2023-02-24T18:10:23.700Z,154.40
2023-02-24T18:12:55.867Z,258.70
2023-02-24T18:15:28.012Z,93.30
2023-02-24T18:18:00.172Z,113.50
2023-02-24T18:20:32.450Z,181.20
2023-02-24T18:23:04.580Z,78.90
2023-02-24T18:25:37.758Z,38.70
2023-02-24T18:28:09.982Z,38.20
2023-02-24T18:30:42.599Z,36.80
2023-02-24T18:33:14.907Z,40.60
2023-02-24T18:35:47.204Z,34.80
2023-02-24T18:38:19.284Z,39.40
2023-02-24T18:41:00.126Z,46.10
2023-02-24T18:43:33.809Z,49.40
2023-02-24T18:46:07.657Z,60.00
2023-02-24T18:48:41.381Z,48.90
2023-02-24T18:51:13.848Z,36.70
2023-02-24T18:53:46.555Z,32.30
2023-02-24T18:56:21.232Z,23.30
2023-02-24T19:01:28.224Z,38.70
2023-02-24T19:04:01.095Z,28.70
2023-02-24T19:06:34.506Z,26.90
2023-02-24T19:09:09.894Z,23.30
2023-02-24T19:11:43.046Z,24.00
2023-02-24T19:14:15.497Z,28.00
2023-02-24T19:16:47.997Z,34.60
2023-02-24T19:19:21.170Z,37.50
2023-02-24T19:21:53.393Z,40.30
2023-02-24T19:24:25.687Z,34.40
2023-02-24T19:26:57.951Z,33.30
2023-02-24T19:29:30.260Z,43.40
2023-02-24T19:32:02.607Z,41.30
2023-02-24T19:34:35.044Z,44.20
2023-02-24T19:37:07.226Z,33.20
2023-02-24T19:39:39.683Z,35.70
2023-02-24T19:42:11.963Z,38.70
2023-02-24T19:44:44.409Z,40.30
2023-02-24T19:47:16.653Z,35.10
2023-02-24T19:49:49.056Z,34.10
2023-02-24T19:52:21.330Z,31.40
2023-02-24T19:54:54.446Z,38.70
2023-02-24T19:57:26.736Z,32.10
2023-02-24T19:59:59.140Z,28.50
2023-02-24T20:02:31.301Z,27.30
2023-02-24T20:05:03.566Z,31.40
2023-02-24T20:07:36.098Z,27.40
2023-02-24T20:10:11.412Z,30.20
2023-02-24T20:12:43.608Z,120.40
2023-02-24T20:15:16.262Z,158.50
2023-02-24T20:17:49.831Z,169.30
2023-02-24T20:20:22.417Z,153.20
2023-02-24T20:22:54.537Z,125.40
2023-02-24T20:25:26.856Z,104.80
2023-02-24T20:27:59.049Z,91.40
2023-02-24T20:30:31.199Z,37.80
2023-02-24T20:33:03.437Z,31.20
2023-02-24T20:35:40.119Z,32.20
2023-02-24T20:38:12.832Z,28.10
2023-02-24T20:40:45.454Z,27.70
2023-02-24T20:43:17.614Z,50.10
2023-02-24T20:45:50.313Z,57.20
2023-02-24T20:48:22.641Z,43.80
2023-02-24T20:50:54.920Z,38.60
2023-02-24T20:53:27.151Z,30.10
2023-02-24T20:56:05.844Z,31.20
2023-02-24T20:58:38.127Z,31.80
2023-02-24T21:01:12.162Z,31.50
2023-02-24T21:03:44.460Z,30.10
2023-02-24T21:06:18.011Z,26.70
2023-02-24T21:08:51.193Z,27.90
2023-02-24T21:11:24.273Z,41.00
2023-02-24T21:13:56.442Z,37.40
2023-02-24T21:16:29.352Z,42.10
2023-02-24T21:19:01.492Z,36.70
2023-02-24T21:21:33.706Z,26.00
2023-02-24T21:24:06.770Z,27.90
2023-02-24T21:26:39.083Z,25.80
2023-02-24T21:29:11.232Z,26.90
2023-02-24T21:31:43.696Z,34.70
2023-02-24T21:34:18.801Z,28.60
2023-02-24T21:39:22.201Z,31.10
2023-02-24T21:41:54.352Z,37.40
2023-02-24T21:44:26.672Z,44.90
2023-02-24T21:47:00.322Z,38.90
2023-02-24T21:49:33.276Z,35.80
2023-02-24T21:52:06.119Z,34.30
2023-02-24T21:54:38.805Z,30.80
2023-02-24T21:57:11.232Z,31.10
2023-02-24T21:59:43.727Z,32.90
2023-02-24T22:02:17.718Z,29.40
2023-02-24T22:04:52.133Z,30.60
2023-02-24T22:07:24.250Z,25.60
2023-02-24T22:09:56.471Z,27.10
2023-02-24T22:12:28.662Z,32.00
2023-02-24T22:15:00.805Z,32.00
2023-02-24T22:17:32.951Z,31.50
2023-02-24T22:20:05.693Z,25.00
2023-02-24T22:22:41.322Z,22.00
2023-02-24T22:25:13.703Z,20.60
2023-02-24T22:27:45.847Z,19.80
2023-02-24T22:30:18.758Z,19.90
2023-02-24T22:32:51.098Z,27.90
2023-02-24T22:35:23.280Z,32.00
2023-02-24T22:37:55.295Z,26.10
2023-02-24T22:40:27.540Z,26.90
2023-02-24T22:42:59.729Z,23.80
2023-02-24T22:45:32.000Z,19.70
2023-02-24T22:48:04.170Z,18.30
2023-02-24T22:50:36.361Z,26.10
2023-02-24T22:53:08.561Z,22.90
2023-02-24T22:55:46.440Z,24.80
2023-02-24T22:58:19.434Z,25.80
2023-02-24T23:00:52.775Z,20.60
2023-02-24T23:03:27.212Z,22.40
2023-02-24T23:06:01.119Z,28.60
2023-02-24T23:08:35.238Z,24.80
2023-02-24T23:11:09.199Z,23.40
2023-02-24T23:13:42.553Z,24.70
2023-02-24T23:16:18.655Z,20.70
2023-02-24T23:18:53.893Z,22.10
2023-02-24T23:21:33.787Z,20.00
2023-02-24T23:24:07.522Z,20.30
2023-02-24T23:26:42.028Z,19.00
2023-02-24T23:29:17.357Z,22.20
2023-02-24T23:31:50.439Z,18.40
2023-02-24T23:34:22.925Z,22.40
2023-02-24T23:36:55.072Z,24.60
2023-02-24T23:39:27.239Z,23.90
2023-02-24T23:41:59.355Z,19.40
2023-02-24T23:44:31.629Z,23.40
2023-02-24T23:47:05.154Z,21.90
2023-02-24T23:49:47.911Z,18.90
2023-02-24T23:52:21.016Z,17.40
2023-02-24T23:54:54.226Z,17.60
2023-02-24T23:57:28.605Z,17.00
